sensor_id;sensor_type;location;lat;lon;timestamp;temperature;humidity
14705;DHT22;7442;50.840;3.396;2023-07-13T00:00:21;24.20;52.00
14705;DHT22;7442;50.840;3.396;2023-07-13T00:03:07;24.20;52.10
14705;DHT22;7442;50.840;3.396;2023-07-13T00:06:00;24.20;52.10
14705;DHT22;7442;50.840;3.396;2023-07-13T00:08:48;24.20;52.10
14705;DHT22;7442;50.840;3.396;2023-07-13T00:11:34;24.20;52.10
14705;DHT22;7442;50.840;3.396;2023-07-13T00:14:20;24.20;52.20
14705;DHT22;7442;50.840;3.396;2023-07-13T00:17:07;24.20;52.20
14705;DHT22;7442;50.840;3.396;2023-07-13T00:19:53;24.20;52.30
14705;DHT22;7442;50.840;3.396;2023-07-13T00:22:41;24.20;52.30
14705;DHT22;7442;50.840;3.396;2023-07-13T00:25:27;24.20;52.30
14705;DHT22;7442;50.840;3.396;2023-07-13T00:28:13;24.20;52.30
14705;DHT22;7442;50.840;3.396;2023-07-13T00:31:00;24.20;52.40
14705;DHT22;7442;50.840;3.396;2023-07-13T00:33:46;24.10;52.40
14705;DHT22;7442;50.840;3.396;2023-07-13T00:36:32;24.10;52.40
14705;DHT22;7442;50.840;3.396;2023-07-13T00:39:19;24.20;52.50
14705;DHT22;7442;50.840;3.396;2023-07-13T00:42:06;24.10;52.40
14705;DHT22;7442;50.840;3.396;2023-07-13T00:48:00;24.10;52.50
14705;DHT22;7442;50.840;3.396;2023-07-13T00:50:49;24.10;52.60
14705;DHT22;7442;50.840;3.396;2023-07-13T00:53:36;24.10;52.60
14705;DHT22;7442;50.840;3.396;2023-07-13T00:56:22;24.10;52.60
14705;DHT22;7442;50.840;3.396;2023-07-13T00:59:10;24.10;52.60
14705;DHT22;7442;50.840;3.396;2023-07-13T01:01:58;24.10;52.60
14705;DHT22;7442;50.840;3.396;2023-07-13T01:04:45;24.00;52.60
14705;DHT22;7442;50.840;3.396;2023-07-13T01:07:31;24.00;52.70
14705;DHT22;7442;50.840;3.396;2023-07-13T01:10:22;24.00;52.70
14705;DHT22;7442;50.840;3.396;2023-07-13T01:13:10;24.10;52.80
14705;DHT22;7442;50.840;3.396;2023-07-13T01:15:58;24.00;52.70
14705;DHT22;7442;50.840;3.396;2023-07-13T01:18:46;24.00;52.80
14705;DHT22;7442;50.840;3.396;2023-07-13T01:21:33;24.00;52.80
14705;DHT22;7442;50.840;3.396;2023-07-13T01:24:19;24.00;52.80
14705;DHT22;7442;50.840;3.396;2023-07-13T01:27:08;24.00;52.90
14705;DHT22;7442;50.840;3.396;2023-07-13T01:29:54;24.00;52.90
14705;DHT22;7442;50.840;3.396;2023-07-13T01:32:42;24.00;52.90
14705;DHT22;7442;50.840;3.396;2023-07-13T01:35:29;23.90;52.90
14705;DHT22;7442;50.840;3.396;2023-07-13T01:38:17;23.90;53.00
14705;DHT22;7442;50.840;3.396;2023-07-13T01:41:03;23.90;53.00
14705;DHT22;7442;50.840;3.396;2023-07-13T01:43:50;23.90;53.10
14705;DHT22;7442;50.840;3.396;2023-07-13T01:46:36;23.90;53.00
14705;DHT22;7442;50.840;3.396;2023-07-13T01:49:22;23.90;53.10
14705;DHT22;7442;50.840;3.396;2023-07-13T01:52:08;23.90;53.10
14705;DHT22;7442;50.840;3.396;2023-07-13T01:54:54;23.90;53.10
14705;DHT22;7442;50.840;3.396;2023-07-13T01:57:40;23.90;53.20
14705;DHT22;7442;50.840;3.396;2023-07-13T02:00:27;23.90;53.20
14705;DHT22;7442;50.840;3.396;2023-07-13T02:03:13;23.90;53.20
14705;DHT22;7442;50.840;3.396;2023-07-13T02:06:01;23.90;53.90
14705;DHT22;7442;50.840;3.396;2023-07-13T02:08:48;23.90;53.30
14705;DHT22;7442;50.840;3.396;2023-07-13T02:11:34;23.90;53.30
14705;DHT22;7442;50.840;3.396;2023-07-13T02:14:20;23.90;53.40
14705;DHT22;7442;50.840;3.396;2023-07-13T02:17:07;23.90;53.40
14705;DHT22;7442;50.840;3.396;2023-07-13T02:19:53;23.80;53.40
14705;DHT22;7442;50.840;3.396;2023-07-13T02:22:40;23.90;53.40
14705;DHT22;7442;50.840;3.396;2023-07-13T02:25:26;23.90;53.50
14705;DHT22;7442;50.840;3.396;2023-07-13T02:28:12;23.80;53.40
14705;DHT22;7442;50.840;3.396;2023-07-13T02:31:10;23.80;53.40
14705;DHT22;7442;50.840;3.396;2023-07-13T02:33:56;23.80;53.40
14705;DHT22;7442;50.840;3.396;2023-07-13T02:36:43;23.80;53.50
14705;DHT22;7442;50.840;3.396;2023-07-13T02:39:29;23.80;53.50
14705;DHT22;7442;50.840;3.396;2023-07-13T02:42:17;23.80;53.50
14705;DHT22;7442;50.840;3.396;2023-07-13T02:45:03;23.80;53.60
14705;DHT22;7442;50.840;3.396;2023-07-13T02:47:49;23.70;53.60
14705;DHT22;7442;50.840;3.396;2023-07-13T02:50:36;23.70;53.60
14705;DHT22;7442;50.840;3.396;2023-07-13T02:53:22;23.80;53.70
14705;DHT22;7442;50.840;3.396;2023-07-13T02:56:08;23.70;53.70
14705;DHT22;7442;50.840;3.396;2023-07-13T02:58:54;23.80;53.70
14705;DHT22;7442;50.840;3.396;2023-07-13T03:01:41;23.80;53.70
14705;DHT22;7442;50.840;3.396;2023-07-13T03:04:27;23.70;53.70
14705;DHT22;7442;50.840;3.396;2023-07-13T03:07:13;23.70;53.70
14705;DHT22;7442;50.840;3.396;2023-07-13T03:10:00;23.70;53.70
14705;DHT22;7442;50.840;3.396;2023-07-13T03:12:46;23.70;53.70
14705;DHT22;7442;50.840;3.396;2023-07-13T03:15:33;23.70;53.70
14705;DHT22;7442;50.840;3.396;2023-07-13T03:18:19;23.70;53.80
14705;DHT22;7442;50.840;3.396;2023-07-13T03:21:06;23.70;53.80
14705;DHT22;7442;50.840;3.396;2023-07-13T03:23:52;23.70;53.80
14705;DHT22;7442;50.840;3.396;2023-07-13T03:26:37;23.70;53.90
14705;DHT22;7442;50.840;3.396;2023-07-13T03:29:24;23.70;53.90
14705;DHT22;7442;50.840;3.396;2023-07-13T03:32:10;23.70;53.90
14705;DHT22;7442;50.840;3.396;2023-07-13T03:34:56;23.70;53.90
14705;DHT22;7442;50.840;3.396;2023-07-13T03:37:42;23.70;54.00
14705;DHT22;7442;50.840;3.396;2023-07-13T03:40:29;23.70;54.00
14705;DHT22;7442;50.840;3.396;2023-07-13T03:43:15;23.70;54.00
14705;DHT22;7442;50.840;3.396;2023-07-13T03:46:01;23.70;54.00
14705;DHT22;7442;50.840;3.396;2023-07-13T03:48:48;23.70;54.10
14705;DHT22;7442;50.840;3.396;2023-07-13T03:51:34;23.60;54.00
14705;DHT22;7442;50.840;3.396;2023-07-13T03:54:20;23.60;54.00
14705;DHT22;7442;50.840;3.396;2023-07-13T03:57:07;23.60;54.10
14705;DHT22;7442;50.840;3.396;2023-07-13T03:59:54;23.60;54.10
14705;DHT22;7442;50.840;3.396;2023-07-13T04:02:40;23.60;54.10
14705;DHT22;7442;50.840;3.396;2023-07-13T04:05:26;23.60;54.10
14705;DHT22;7442;50.840;3.396;2023-07-13T04:08:13;23.50;54.10
14705;DHT22;7442;50.840;3.396;2023-07-13T04:11:00;23.60;54.20
14705;DHT22;7442;50.840;3.396;2023-07-13T04:13:46;23.60;54.20
14705;DHT22;7442;50.840;3.396;2023-07-13T04:16:33;23.50;54.70
14705;DHT22;7442;50.840;3.396;2023-07-13T04:19:20;23.60;54.20
14705;DHT22;7442;50.840;3.396;2023-07-13T04:22:06;23.60;54.20
14705;DHT22;7442;50.840;3.396;2023-07-13T04:24:52;23.60;54.30
14705;DHT22;7442;50.840;3.396;2023-07-13T04:27:38;23.50;54.20
14705;DHT22;7442;50.840;3.396;2023-07-13T04:30:25;23.60;54.30
14705;DHT22;7442;50.840;3.396;2023-07-13T04:33:12;23.50;54.20
14705;DHT22;7442;50.840;3.396;2023-07-13T04:35:58;23.60;54.30
14705;DHT22;7442;50.840;3.396;2023-07-13T04:38:44;23.50;54.30
14705;DHT22;7442;50.840;3.396;2023-07-13T04:41:31;23.50;54.30
14705;DHT22;7442;50.840;3.396;2023-07-13T04:44:17;23.50;54.30
14705;DHT22;7442;50.840;3.396;2023-07-13T04:47:04;23.50;54.40
14705;DHT22;7442;50.840;3.396;2023-07-13T04:49:50;23.50;54.30
14705;DHT22;7442;50.840;3.396;2023-07-13T04:52:36;23.50;54.30
14705;DHT22;7442;50.840;3.396;2023-07-13T04:55:23;23.50;54.30
14705;DHT22;7442;50.840;3.396;2023-07-13T04:58:09;23.50;54.30
14705;DHT22;7442;50.840;3.396;2023-07-13T05:01:06;23.50;54.40
14705;DHT22;7442;50.840;3.396;2023-07-13T05:03:53;23.50;54.40
14705;DHT22;7442;50.840;3.396;2023-07-13T05:06:42;23.50;54.40
14705;DHT22;7442;50.840;3.396;2023-07-13T05:09:28;23.50;54.50
14705;DHT22;7442;50.840;3.396;2023-07-13T05:12:14;23.50;54.50
14705;DHT22;7442;50.840;3.396;2023-07-13T05:15:00;23.50;54.50
14705;DHT22;7442;50.840;3.396;2023-07-13T05:17:48;23.50;54.50
14705;DHT22;7442;50.840;3.396;2023-07-13T05:20:34;23.50;54.60
14705;DHT22;7442;50.840;3.396;2023-07-13T05:23:21;23.50;54.50
14705;DHT22;7442;50.840;3.396;2023-07-13T05:26:07;23.50;54.50
14705;DHT22;7442;50.840;3.396;2023-07-13T05:28:53;23.50;54.70
14705;DHT22;7442;50.840;3.396;2023-07-13T05:31:40;23.50;54.80
14705;DHT22;7442;50.840;3.396;2023-07-13T05:34:26;23.50;55.80
14705;DHT22;7442;50.840;3.396;2023-07-13T05:37:12;23.50;55.20
14705;DHT22;7442;50.840;3.396;2023-07-13T05:39:58;23.50;55.30
14705;DHT22;7442;50.840;3.396;2023-07-13T05:42:45;23.50;55.30
14705;DHT22;7442;50.840;3.396;2023-07-13T05:45:31;23.50;55.40
14705;DHT22;7442;50.840;3.396;2023-07-13T05:48:17;23.50;55.40
14705;DHT22;7442;50.840;3.396;2023-07-13T05:51:04;23.60;55.70
14705;DHT22;7442;50.840;3.396;2023-07-13T05:53:50;23.60;55.70
14705;DHT22;7442;50.840;3.396;2023-07-13T05:56:37;23.60;55.90
14705;DHT22;7442;50.840;3.396;2023-07-13T05:59:23;23.70;56.00
14705;DHT22;7442;50.840;3.396;2023-07-13T06:02:10;23.70;56.00
14705;DHT22;7442;50.840;3.396;2023-07-13T06:04:57;23.70;56.10
14705;DHT22;7442;50.840;3.396;2023-07-13T06:07:44;23.70;56.00
14705;DHT22;7442;50.840;3.396;2023-07-13T06:10:32;23.60;56.00
14705;DHT22;7442;50.840;3.396;2023-07-13T06:13:18;23.60;56.10
14705;DHT22;7442;50.840;3.396;2023-07-13T06:16:05;23.60;56.10
14705;DHT22;7442;50.840;3.396;2023-07-13T06:18:52;23.60;56.10
14705;DHT22;7442;50.840;3.396;2023-07-13T06:21:38;23.60;56.20
14705;DHT22;7442;50.840;3.396;2023-07-13T06:24:25;23.60;56.20
14705;DHT22;7442;50.840;3.396;2023-07-13T06:27:11;23.60;56.20
14705;DHT22;7442;50.840;3.396;2023-07-13T06:29:57;23.60;56.20
14705;DHT22;7442;50.840;3.396;2023-07-13T06:32:43;23.60;56.20
14705;DHT22;7442;50.840;3.396;2023-07-13T06:35:30;23.60;56.20
14705;DHT22;7442;50.840;3.396;2023-07-13T06:38:16;23.60;56.20
14705;DHT22;7442;50.840;3.396;2023-07-13T06:41:02;23.60;56.20
14705;DHT22;7442;50.840;3.396;2023-07-13T06:43:48;23.60;56.20
14705;DHT22;7442;50.840;3.396;2023-07-13T06:46:35;23.60;56.20
14705;DHT22;7442;50.840;3.396;2023-07-13T06:49:21;23.60;56.30
14705;DHT22;7442;50.840;3.396;2023-07-13T06:52:07;23.60;56.20
14705;DHT22;7442;50.840;3.396;2023-07-13T06:54:53;23.60;56.20
14705;DHT22;7442;50.840;3.396;2023-07-13T06:57:40;23.50;57.30
14705;DHT22;7442;50.840;3.396;2023-07-13T07:00:26;23.50;57.50
14705;DHT22;7442;50.840;3.396;2023-07-13T07:03:13;23.40;58.30
14705;DHT22;7442;50.840;3.396;2023-07-13T07:06:19;23.40;59.30
14705;DHT22;7442;50.840;3.396;2023-07-13T07:09:09;23.30;59.30
14705;DHT22;7442;50.840;3.396;2023-07-13T07:11:56;23.30;58.80
14705;DHT22;7442;50.840;3.396;2023-07-13T07:14:42;23.40;58.70
14705;DHT22;7442;50.840;3.396;2023-07-13T07:17:29;23.40;59.10
14705;DHT22;7442;50.840;3.396;2023-07-13T07:20:15;23.40;59.20
14705;DHT22;7442;50.840;3.396;2023-07-13T07:23:01;23.40;59.10
14705;DHT22;7442;50.840;3.396;2023-07-13T07:25:47;23.50;59.20
14705;DHT22;7442;50.840;3.396;2023-07-13T07:28:34;23.50;59.10
14705;DHT22;7442;50.840;3.396;2023-07-13T07:31:20;23.50;59.30
14705;DHT22;7442;50.840;3.396;2023-07-13T07:34:07;23.70;58.80
14705;DHT22;7442;50.840;3.396;2023-07-13T07:36:54;23.70;58.70
14705;DHT22;7442;50.840;3.396;2023-07-13T07:39:40;23.70;58.90
14705;DHT22;7442;50.840;3.396;2023-07-13T07:42:26;23.90;58.50
14705;DHT22;7442;50.840;3.396;2023-07-13T07:45:13;23.90;58.50
14705;DHT22;7442;50.840;3.396;2023-07-13T07:48:00;23.90;58.50
14705;DHT22;7442;50.840;3.396;2023-07-13T07:50:46;23.90;58.10
14705;DHT22;7442;50.840;3.396;2023-07-13T07:53:33;23.90;58.20
14705;DHT22;7442;50.840;3.396;2023-07-13T07:56:19;23.90;58.50
14705;DHT22;7442;50.840;3.396;2023-07-13T07:59:06;23.80;58.70
14705;DHT22;7442;50.840;3.396;2023-07-13T08:01:52;23.80;58.10
14705;DHT22;7442;50.840;3.396;2023-07-13T08:04:39;23.80;58.00
14705;DHT22;7442;50.840;3.396;2023-07-13T08:07:25;23.90;57.60
14705;DHT22;7442;50.840;3.396;2023-07-13T08:10:11;23.80;58.00
14705;DHT22;7442;50.840;3.396;2023-07-13T08:12:57;23.80;57.90
14705;DHT22;7442;50.840;3.396;2023-07-13T08:15:43;23.80;57.70
14705;DHT22;7442;50.840;3.396;2023-07-13T08:18:30;23.90;57.60
14705;DHT22;7442;50.840;3.396;2023-07-13T08:21:17;23.90;57.40
14705;DHT22;7442;50.840;3.396;2023-07-13T08:24:05;23.90;57.40
14705;DHT22;7442;50.840;3.396;2023-07-13T08:26:52;23.90;57.20
14705;DHT22;7442;50.840;3.396;2023-07-13T08:29:39;23.90;57.10
14705;DHT22;7442;50.840;3.396;2023-07-13T08:32:25;23.90;56.90
14705;DHT22;7442;50.840;3.396;2023-07-13T08:35:12;24.00;56.80
14705;DHT22;7442;50.840;3.396;2023-07-13T08:37:59;24.00;57.00
14705;DHT22;7442;50.840;3.396;2023-07-13T08:40:54;24.00;56.60
14705;DHT22;7442;50.840;3.396;2023-07-13T08:43:49;24.00;56.50
14705;DHT22;7442;50.840;3.396;2023-07-13T08:46:37;24.00;56.50
14705;DHT22;7442;50.840;3.396;2023-07-13T08:49:25;24.00;56.40
14705;DHT22;7442;50.840;3.396;2023-07-13T08:52:26;24.00;56.40
14705;DHT22;7442;50.840;3.396;2023-07-13T08:55:20;24.00;56.30
14705;DHT22;7442;50.840;3.396;2023-07-13T08:58:14;24.00;56.10
14705;DHT22;7442;50.840;3.396;2023-07-13T09:01:17;24.00;56.20
14705;DHT22;7442;50.840;3.396;2023-07-13T09:04:21;24.00;56.20
14705;DHT22;7442;50.840;3.396;2023-07-13T09:13:13;24.00;55.80
14705;DHT22;7442;50.840;3.396;2023-07-13T09:15:56;24.10;55.70
14705;DHT22;7442;50.840;3.396;2023-07-13T09:18:48;24.10;55.50
14705;DHT22;7442;50.840;3.396;2023-07-13T09:21:37;24.20;55.40
14705;DHT22;7442;50.840;3.396;2023-07-13T09:24:41;24.20;55.10
14705;DHT22;7442;50.840;3.396;2023-07-13T09:27:46;24.30;54.80
14705;DHT22;7442;50.840;3.396;2023-07-13T09:30:30;24.20;54.90
14705;DHT22;7442;50.840;3.396;2023-07-13T09:33:13;24.30;54.70
14705;DHT22;7442;50.840;3.396;2023-07-13T09:35:59;24.30;54.70
14705;DHT22;7442;50.840;3.396;2023-07-13T09:38:48;24.30;54.50
14705;DHT22;7442;50.840;3.396;2023-07-13T09:41:39;24.30;54.40
14705;DHT22;7442;50.840;3.396;2023-07-13T09:44:36;24.40;54.10
14705;DHT22;7442;50.840;3.396;2023-07-13T09:47:28;24.30;54.40
14705;DHT22;7442;50.840;3.396;2023-07-13T09:50:17;24.40;54.20
14705;DHT22;7442;50.840;3.396;2023-07-13T09:53:03;24.30;54.60
14705;DHT22;7442;50.840;3.396;2023-07-13T09:55:49;24.40;54.20
14705;DHT22;7442;50.840;3.396;2023-07-13T09:58:36;24.30;54.30
14705;DHT22;7442;50.840;3.396;2023-07-13T10:01:36;24.30;54.20
14705;DHT22;7442;50.840;3.396;2023-07-13T10:04:30;24.50;53.90
14705;DHT22;7442;50.840;3.396;2023-07-13T10:07:15;24.50;53.70
14705;DHT22;7442;50.840;3.396;2023-07-13T10:10:13;24.60;53.70
14705;DHT22;7442;50.840;3.396;2023-07-13T10:12:53;24.60;53.50
14705;DHT22;7442;50.840;3.396;2023-07-13T10:15:39;24.60;53.40
14705;DHT22;7442;50.840;3.396;2023-07-13T10:18:27;24.60;53.40
14705;DHT22;7442;50.840;3.396;2023-07-13T10:21:23;24.70;53.20
14705;DHT22;7442;50.840;3.396;2023-07-13T10:24:27;24.70;52.90
14705;DHT22;7442;50.840;3.396;2023-07-13T10:27:18;24.60;53.30
14705;DHT22;7442;50.840;3.396;2023-07-13T10:32:57;24.50;53.40
14705;DHT22;7442;50.840;3.396;2023-07-13T10:35:43;24.60;53.80
14705;DHT22;7442;50.840;3.396;2023-07-13T10:38:32;24.50;54.10
14705;DHT22;7442;50.840;3.396;2023-07-13T10:41:21;24.50;53.40
14705;DHT22;7442;50.840;3.396;2023-07-13T10:44:19;24.50;54.50
14705;DHT22;7442;50.840;3.396;2023-07-13T10:47:07;24.40;56.50
14705;DHT22;7442;50.840;3.396;2023-07-13T10:49:56;24.30;57.40
14705;DHT22;7442;50.840;3.396;2023-07-13T10:52:46;24.40;57.40
14705;DHT22;7442;50.840;3.396;2023-07-13T10:55:41;24.40;57.60
14705;DHT22;7442;50.840;3.396;2023-07-13T10:58:38;24.40;57.90
14705;DHT22;7442;50.840;3.396;2023-07-13T11:01:20;24.40;57.90
14705;DHT22;7442;50.840;3.396;2023-07-13T11:04:10;24.30;58.50
14705;DHT22;7442;50.840;3.396;2023-07-13T11:07:00;24.30;58.60
14705;DHT22;7442;50.840;3.396;2023-07-13T11:09:51;24.40;59.20
14705;DHT22;7442;50.840;3.396;2023-07-13T11:12:52;24.40;59.50
14705;DHT22;7442;50.840;3.396;2023-07-13T11:15:47;24.40;59.50
14705;DHT22;7442;50.840;3.396;2023-07-13T11:18:34;24.40;59.50
14705;DHT22;7442;50.840;3.396;2023-07-13T11:21:22;24.50;58.90
14705;DHT22;7442;50.840;3.396;2023-07-13T11:24:19;24.50;58.80
14705;DHT22;7442;50.840;3.396;2023-07-13T11:27:15;24.50;59.10
14705;DHT22;7442;50.840;3.396;2023-07-13T11:29:52;24.60;59.10
14705;DHT22;7442;50.840;3.396;2023-07-13T11:32:38;24.60;59.10
14705;DHT22;7442;50.840;3.396;2023-07-13T11:35:26;24.70;58.80
14705;DHT22;7442;50.840;3.396;2023-07-13T11:41:34;24.70;57.70
14705;DHT22;7442;50.840;3.396;2023-07-13T11:44:20;24.90;57.00
14705;DHT22;7442;50.840;3.396;2023-07-13T11:47:14;24.90;56.10
14705;DHT22;7442;50.840;3.396;2023-07-13T11:49:59;24.90;55.80
14705;DHT22;7442;50.840;3.396;2023-07-13T11:52:46;24.80;55.90
14705;DHT22;7442;50.840;3.396;2023-07-13T11:55:35;24.80;55.70
14705;DHT22;7442;50.840;3.396;2023-07-13T11:58:25;24.80;55.80
14705;DHT22;7442;50.840;3.396;2023-07-13T12:01:29;24.60;56.30
14705;DHT22;7442;50.840;3.396;2023-07-13T12:04:19;24.60;56.20
14705;DHT22;7442;50.840;3.396;2023-07-13T12:07:06;24.60;55.70
14705;DHT22;7442;50.840;3.396;2023-07-13T12:09:54;24.70;55.50
14705;DHT22;7442;50.840;3.396;2023-07-13T12:12:53;24.80;55.20
14705;DHT22;7442;50.840;3.396;2023-07-13T12:15:42;24.80;54.70
14705;DHT22;7442;50.840;3.396;2023-07-13T12:18:30;24.90;53.90
14705;DHT22;7442;50.840;3.396;2023-07-13T12:21:19;24.80;53.60
14705;DHT22;7442;50.840;3.396;2023-07-13T12:24:18;24.80;53.10
14705;DHT22;7442;50.840;3.396;2023-07-13T12:27:06;24.80;52.50
14705;DHT22;7442;50.840;3.396;2023-07-13T12:30:02;24.80;52.30
14705;DHT22;7442;50.840;3.396;2023-07-13T12:33:23;24.70;52.10
14705;DHT22;7442;50.840;3.396;2023-07-13T12:35:51;24.70;52.50
14705;DHT22;7442;50.840;3.396;2023-07-13T12:38:38;24.80;52.20
14705;DHT22;7442;50.840;3.396;2023-07-13T12:41:25;24.80;51.70
14705;DHT22;7442;50.840;3.396;2023-07-13T12:44:15;24.80;51.50
14705;DHT22;7442;50.840;3.396;2023-07-13T12:47:09;24.80;51.00
14705;DHT22;7442;50.840;3.396;2023-07-13T12:49:58;24.80;50.60
14705;DHT22;7442;50.840;3.396;2023-07-13T12:52:51;24.80;50.30
14705;DHT22;7442;50.840;3.396;2023-07-13T12:55:50;24.80;50.10
14705;DHT22;7442;50.840;3.396;2023-07-13T12:58:41;24.90;50.10
14705;DHT22;7442;50.840;3.396;2023-07-13T13:01:32;24.90;49.90
14705;DHT22;7442;50.840;3.396;2023-07-13T13:04:19;24.90;50.00
14705;DHT22;7442;50.840;3.396;2023-07-13T13:07:08;24.90;49.50
14705;DHT22;7442;50.840;3.396;2023-07-13T13:09:56;24.80;49.40
14705;DHT22;7442;50.840;3.396;2023-07-13T13:12:43;24.90;49.70
14705;DHT22;7442;50.840;3.396;2023-07-13T13:15:29;24.90;49.50
14705;DHT22;7442;50.840;3.396;2023-07-13T13:18:18;24.90;49.30
14705;DHT22;7442;50.840;3.396;2023-07-13T13:21:07;24.90;48.80
14705;DHT22;7442;50.840;3.396;2023-07-13T13:23:54;24.90;49.10
14705;DHT22;7442;50.840;3.396;2023-07-13T13:26:41;24.90;48.70
14705;DHT22;7442;50.840;3.396;2023-07-13T13:29:27;24.90;48.50
14705;DHT22;7442;50.840;3.396;2023-07-13T13:32:14;24.90;48.70
14705;DHT22;7442;50.840;3.396;2023-07-13T13:35:01;24.90;48.40
14705;DHT22;7442;50.840;3.396;2023-07-13T13:37:47;24.90;47.80
14705;DHT22;7442;50.840;3.396;2023-07-13T13:40:35;24.90;47.50
14705;DHT22;7442;50.840;3.396;2023-07-13T13:43:23;25.00;47.40
14705;DHT22;7442;50.840;3.396;2023-07-13T13:46:16;25.00;47.50
14705;DHT22;7442;50.840;3.396;2023-07-13T13:49:03;24.90;47.60
14705;DHT22;7442;50.840;3.396;2023-07-13T13:51:50;24.90;47.60
14705;DHT22;7442;50.840;3.396;2023-07-13T13:54:36;25.00;47.30
14705;DHT22;7442;50.840;3.396;2023-07-13T13:57:26;25.00;47.30
14705;DHT22;7442;50.840;3.396;2023-07-13T14:00:14;25.00;47.40
14705;DHT22;7442;50.840;3.396;2023-07-13T14:03:02;24.90;48.30
14705;DHT22;7442;50.840;3.396;2023-07-13T14:05:49;25.00;47.70
14705;DHT22;7442;50.840;3.396;2023-07-13T14:08:35;25.00;47.80
14705;DHT22;7442;50.840;3.396;2023-07-13T14:11:22;24.90;48.00
14705;DHT22;7442;50.840;3.396;2023-07-13T14:14:16;24.90;48.00
14705;DHT22;7442;50.840;3.396;2023-07-13T14:17:03;24.90;48.30
14705;DHT22;7442;50.840;3.396;2023-07-13T14:19:51;24.90;48.00
14705;DHT22;7442;50.840;3.396;2023-07-13T14:22:39;24.90;47.90
14705;DHT22;7442;50.840;3.396;2023-07-13T14:25:27;25.00;48.20
14705;DHT22;7442;50.840;3.396;2023-07-13T14:31:03;25.00;48.30
14705;DHT22;7442;50.840;3.396;2023-07-13T14:33:49;25.00;48.50
14705;DHT22;7442;50.840;3.396;2023-07-13T14:36:41;25.00;48.50
14705;DHT22;7442;50.840;3.396;2023-07-13T14:39:29;25.00;48.50
14705;DHT22;7442;50.840;3.396;2023-07-13T14:42:16;25.10;48.50
14705;DHT22;7442;50.840;3.396;2023-07-13T14:45:02;25.00;48.00
14705;DHT22;7442;50.840;3.396;2023-07-13T14:47:49;25.10;48.00
14705;DHT22;7442;50.840;3.396;2023-07-13T14:50:35;25.10;47.80
14705;DHT22;7442;50.840;3.396;2023-07-13T14:53:26;25.10;48.00
14705;DHT22;7442;50.840;3.396;2023-07-13T14:56:16;25.10;47.90
14705;DHT22;7442;50.840;3.396;2023-07-13T14:59:02;25.10;48.10
14705;DHT22;7442;50.840;3.396;2023-07-13T15:01:50;25.10;47.80
14705;DHT22;7442;50.840;3.396;2023-07-13T15:04:36;25.00;47.20
14705;DHT22;7442;50.840;3.396;2023-07-13T15:07:23;25.10;47.50
14705;DHT22;7442;50.840;3.396;2023-07-13T15:10:20;25.10;47.70
14705;DHT22;7442;50.840;3.396;2023-07-13T15:13:21;25.10;47.80
14705;DHT22;7442;50.840;3.396;2023-07-13T15:16:21;25.10;48.00
14705;DHT22;7442;50.840;3.396;2023-07-13T15:19:05;25.00;48.10
14705;DHT22;7442;50.840;3.396;2023-07-13T15:21:57;25.10;48.70
14705;DHT22;7442;50.840;3.396;2023-07-13T15:24:44;25.00;47.40
14705;DHT22;7442;50.840;3.396;2023-07-13T15:27:30;25.00;47.50
14705;DHT22;7442;50.840;3.396;2023-07-13T15:30:17;25.10;47.60
14705;DHT22;7442;50.840;3.396;2023-07-13T15:33:11;25.10;47.70
14705;DHT22;7442;50.840;3.396;2023-07-13T15:35:54;25.10;47.70
14705;DHT22;7442;50.840;3.396;2023-07-13T15:38:41;25.10;48.20
14705;DHT22;7442;50.840;3.396;2023-07-13T15:41:29;25.10;47.90
14705;DHT22;7442;50.840;3.396;2023-07-13T15:44:27;25.10;48.00
14705;DHT22;7442;50.840;3.396;2023-07-13T15:47:12;25.10;47.80
14705;DHT22;7442;50.840;3.396;2023-07-13T15:49:59;25.10;47.80
14705;DHT22;7442;50.840;3.396;2023-07-13T15:52:49;25.20;47.60
14705;DHT22;7442;50.840;3.396;2023-07-13T15:55:38;25.20;47.80
14705;DHT22;7442;50.840;3.396;2023-07-13T15:58:25;25.20;47.60
14705;DHT22;7442;50.840;3.396;2023-07-13T16:01:13;25.20;47.20
14705;DHT22;7442;50.840;3.396;2023-07-13T16:04:00;25.30;46.70
14705;DHT22;7442;50.840;3.396;2023-07-13T16:06:46;25.30;47.10
14705;DHT22;7442;50.840;3.396;2023-07-13T16:09:33;25.30;46.30
14705;DHT22;7442;50.840;3.396;2023-07-13T16:12:19;25.20;46.10
14705;DHT22;7442;50.840;3.396;2023-07-13T16:15:20;25.30;46.60
14705;DHT22;7442;50.840;3.396;2023-07-13T16:17:58;25.30;45.80
14705;DHT22;7442;50.840;3.396;2023-07-13T16:20:46;25.30;46.10
14705;DHT22;7442;50.840;3.396;2023-07-13T16:23:33;25.30;46.00
14705;DHT22;7442;50.840;3.396;2023-07-13T16:26:30;25.20;46.30
14705;DHT22;7442;50.840;3.396;2023-07-13T16:29:17;25.30;46.00
14705;DHT22;7442;50.840;3.396;2023-07-13T16:32:13;25.40;46.10
14705;DHT22;7442;50.840;3.396;2023-07-13T16:34:59;25.40;46.20
14705;DHT22;7442;50.840;3.396;2023-07-13T16:37:46;25.40;46.10
14705;DHT22;7442;50.840;3.396;2023-07-13T16:40:33;25.40;46.20
14705;DHT22;7442;50.840;3.396;2023-07-13T16:43:23;25.40;46.10
14705;DHT22;7442;50.840;3.396;2023-07-13T16:46:20;25.40;46.40
14705;DHT22;7442;50.840;3.396;2023-07-13T16:49:00;25.40;46.30
14705;DHT22;7442;50.840;3.396;2023-07-13T16:51:47;25.40;46.30
14705;DHT22;7442;50.840;3.396;2023-07-13T16:54:38;25.50;46.40
14705;DHT22;7442;50.840;3.396;2023-07-13T16:57:31;25.40;46.60
14705;DHT22;7442;50.840;3.396;2023-07-13T17:00:25;25.40;46.90
14705;DHT22;7442;50.840;3.396;2023-07-13T17:03:15;25.30;46.90
14705;DHT22;7442;50.840;3.396;2023-07-13T17:06:12;25.30;46.70
14705;DHT22;7442;50.840;3.396;2023-07-13T17:08:53;25.30;47.20
14705;DHT22;7442;50.840;3.396;2023-07-13T17:11:41;25.20;46.70
14705;DHT22;7442;50.840;3.396;2023-07-13T17:14:29;25.20;46.90
14705;DHT22;7442;50.840;3.396;2023-07-13T17:17:23;25.20;47.10
14705;DHT22;7442;50.840;3.396;2023-07-13T17:20:16;25.20;47.20
14705;DHT22;7442;50.840;3.396;2023-07-13T17:22:59;25.10;47.10
14705;DHT22;7442;50.840;3.396;2023-07-13T17:25:46;25.10;47.30
14705;DHT22;7442;50.840;3.396;2023-07-13T17:28:34;25.10;47.50
14705;DHT22;7442;50.840;3.396;2023-07-13T17:31:20;25.10;47.80
14705;DHT22;7442;50.840;3.396;2023-07-13T17:34:09;25.10;47.90
14705;DHT22;7442;50.840;3.396;2023-07-13T17:36:57;25.10;48.40
14705;DHT22;7442;50.840;3.396;2023-07-13T17:39:45;25.10;48.30
14705;DHT22;7442;50.840;3.396;2023-07-13T17:42:32;25.10;48.40
14705;DHT22;7442;50.840;3.396;2023-07-13T17:45:18;25.10;48.50
14705;DHT22;7442;50.840;3.396;2023-07-13T17:48:07;25.10;48.50
14705;DHT22;7442;50.840;3.396;2023-07-13T17:50:54;25.10;48.50
14705;DHT22;7442;50.840;3.396;2023-07-13T17:53:41;25.00;48.60
14705;DHT22;7442;50.840;3.396;2023-07-13T17:56:28;25.00;48.80
14705;DHT22;7442;50.840;3.396;2023-07-13T17:59:16;25.00;49.00
14705;DHT22;7442;50.840;3.396;2023-07-13T18:02:02;24.90;49.20
14705;DHT22;7442;50.840;3.396;2023-07-13T18:04:49;24.90;49.60
14705;DHT22;7442;50.840;3.396;2023-07-13T18:07:36;24.90;49.80
14705;DHT22;7442;50.840;3.396;2023-07-13T18:10:22;24.90;49.90
14705;DHT22;7442;50.840;3.396;2023-07-13T18:13:09;24.90;50.00
14705;DHT22;7442;50.840;3.396;2023-07-13T18:15:55;24.90;50.10